Map

Track Data

SID SEASON NUMBER BASIN SUBBASIN NAME ISO_TIME NATURE LAT LON WMO_WIND WMO_PRES WMO_AGENCY TRACK_TYPE DIST2LAND LANDFALL IFLAG USA_AGENCY USA_ATCF_ID USA_LAT USA_LON USA_RECORD USA_STATUS USA_WIND USA_PRES USA_SSHS USA_R34_NE USA_R34_SE USA_R34_SW USA_R34_NW USA_R50_NE USA_R50_SE USA_R50_SW USA_R50_NW USA_R64_NE USA_R64_SE USA_R64_SW USA_R64_NW USA_POCI USA_ROCI USA_RMW USA_EYE TOKYO_LAT TOKYO_LON TOKYO_GRADE TOKYO_WIND TOKYO_PRES TOKYO_R50_DIR TOKYO_R50_LONG TOKYO_R50_SHORT TOKYO_R30_DIR TOKYO_R30_LONG TOKYO_R30_SHORT TOKYO_LAND CMA_LAT CMA_LON CMA_CAT CMA_WIND CMA_PRES HKO_LAT HKO_LON HKO_CAT HKO_WIND HKO_PRES NEWDELHI_LAT NEWDELHI_LON NEWDELHI_GRADE NEWDELHI_WIND NEWDELHI_PRES NEWDELHI_CI NEWDELHI_DP NEWDELHI_POCI REUNION_LAT REUNION_LON REUNION_TYPE REUNION_WIND REUNION_PRES REUNION_TNUM REUNION_CI REUNION_RMW REUNION_R34_NE REUNION_R34_SE REUNION_R34_SW REUNION_R34_NW REUNION_R50_NE REUNION_R50_SE REUNION_R50_SW REUNION_R50_NW REUNION_R64_NE REUNION_R64_SE REUNION_R64_SW REUNION_R64_NW BOM_LAT BOM_LON BOM_TYPE BOM_WIND BOM_PRES BOM_TNUM BOM_CI BOM_RMW BOM_R34_NE BOM_R34_SE BOM_R34_SW BOM_R34_NW BOM_R50_NE BOM_R50_SE BOM_R50_SW BOM_R50_NW BOM_R64_NE BOM_R64_SE BOM_R64_SW BOM_R64_NW BOM_ROCI BOM_POCI BOM_EYE BOM_POS_METHOD BOM_PRES_METHOD NADI_LAT NADI_LON NADI_CAT NADI_WIND NADI_PRES WELLINGTON_LAT WELLINGTON_LON WELLINGTON_WIND WELLINGTON_PRES DS824_LAT DS824_LON DS824_STAGE DS824_WIND DS824_PRES TD9636_LAT TD9636_LON TD9636_STAGE TD9636_WIND TD9636_PRES TD9635_LAT TD9635_LON TD9635_WIND TD9635_PRES TD9635_ROCI NEUMANN_LAT NEUMANN_LON NEUMANN_CLASS NEUMANN_WIND NEUMANN_PRES MLC_LAT MLC_LON MLC_CLASS MLC_WIND MLC_PRES USA_GUST BOM_GUST BOM_GUST_PER REUNION_GUST REUNION_GUST_PER USA_SEAHGT USA_SEARAD_NE USA_SEARAD_SE USA_SEARAD_SW USA_SEARAD_NW STORM_SPEED STORM_DIR
1921070S14067 1921 15 SI MM NOT_NAMED 1921-03-11 06:00:00 NR -13.6000 67.4000 reunion main 1262 1229 _____O____O___ -1 -13.4000 67.5000 99 9.90000 -13.8000 67.3000 7 6 247
1921070S14067 1921 15 SI MM NOT_NAMED 1921-03-11 09:00:00 NR -13.7116 67.1257 main 1229 1205 _____P____P___ -1 -13.4269 67.4960 99 -13.9954 66.7578 7 6 247
1921070S14067 1921 15 SI MM NOT_NAMED 1921-03-11 12:00:00 NR -13.8255 66.8512 main 1205 1173 _____P____P___ -1 -13.4572 67.4841 99 -14.1921 66.2220 7 6 246
1921070S14067 1921 15 SI MM NOT_NAMED 1921-03-11 15:00:00 NR -13.9442 66.5767 main 1173 1133 _____P____P___ -1 -13.4943 67.4563 99 -14.3927 65.7003 7 6 245
1921070S14067 1921 15 SI MM NOT_NAMED 1921-03-11 18:00:00 NR -14.0708 66.3023 main 1133 1101 _____P____O___ -1 -13.5416 67.4047 99 -14.6000 65.2000 7 6 244
1921070S14067 1921 15 SI MM NOT_NAMED 1921-03-11 21:00:00 NR -14.2079 66.0267 main 1101 1085 _____P____P___ -1 -13.6025 67.3213 99 -14.8159 64.7261 7 4 241
1921070S14067 1921 15 SI MM NOT_NAMED 1921-03-12 00:00:00 NR -14.2606 65.9493 main 1085 1085 _____P____P___ -1 -13.6803 67.1980 99 -15.0391 64.2733 7 1 222
1921070S14067 1921 15 SI MM NOT_NAMED 1921-03-12 03:00:00 NR -14.2733 65.9662 main 1094 1094 _____P____P___ -1 -13.7784 67.0270 99 -15.2679 63.8338 7 2 76
1921070S14067 1921 15 SI MM NOT_NAMED 1921-03-12 06:00:00 NR -14.2200 66.1200 reunion main 1109 1109 _____O____O___ -1 -13.9000 66.8000 99 9.90000 -15.5000 63.4000 7 6 67
1921070S14067 1921 15 SI MM NOT_NAMED 1921-03-12 09:00:00 NR -14.0474 66.5116 main 1157 1118 _____P____P___ -1 -14.0474 66.5116 99 -15.7377 62.9190 7 0 88
1921070S14067 1921 15 SI MM NOT_NAMED 1921-03-12 12:00:00 NR -14.2188 66.1662 main 1118 1070 _____P____P___ -1 -14.2188 66.1662 99 -15.9814 62.4245 7 8 243
1921070S14067 1921 15 SI MM NOT_NAMED 1921-03-12 15:00:00 NR -14.4116 65.7712 main 1070 1022 _____P____P___ -1 -14.4116 65.7712 99 -16.2296 61.9201 7 9 243
1921070S14067 1921 15 SI MM NOT_NAMED 1921-03-12 18:00:00 NR -14.6228 65.3335 main 1014 966 _____P____P___ -1 -14.6228 65.3335 99 -16.4811 61.4095 7 10 244
1921070S14067 1921 15 SI MM NOT_NAMED 1921-03-12 21:00:00 NR -14.8499 64.8604 main 966 903 _____P____P___ -1 -14.8499 64.8604 99 -16.7345 60.8965 7 11 244
1921070S14067 1921 15 SI MM NOT_NAMED 1921-03-13 00:00:00 NR -15.0902 64.3590 main 903 848 _____P____P___ -1 -15.0902 64.3590 99 -16.9885 60.3848 7 11 244
1921070S14067 1921 15 SI MM NOT_NAMED 1921-03-13 03:00:00 NR -15.3411 63.8365 main 840 777 _____P____P___ -1 -15.3411 63.8365 99 -17.2418 59.8782 7 11 243
1921070S14067 1921 15 SI MM NOT_NAMED 1921-03-13 06:00:00 NR -15.6000 63.3000 reunion main 777 715 _____O____P___ -1 -15.6000 63.3000 99 9.90000 -17.4933 59.3806 7 12 243
1921070S14067 1921 15 SI MM NOT_NAMED 1921-03-13 09:00:00 NR -15.8663 62.7510 main 715 653 _____P____P___ -1 -15.8663 62.7510 99 -17.7416 58.8959 7 12 243
1921070S14067 1921 15 SI MM NOT_NAMED 1921-03-13 12:00:00 NR -16.1448 62.1765 main 653 583 _____P____P___ -1 -16.1448 62.1765 99 -17.9857 58.4281 7 13 243
1921070S14067 1921 15 SI MM NOT_NAMED 1921-03-13 15:00:00 NR -16.4305 61.5873 main 583 515 _____P____P___ -1 -16.4305 61.5873 99 -18.2244 57.9811 7 13 243
1921070S14067 1921 15 SI MM NOT_NAMED 1921-03-13 18:00:00 NR -16.7186 60.9939 main 515 455 _____P____P___ -1 -16.7186 60.9939 99 -18.4567 57.5590 7 13 243
1921070S14067 1921 15 SI MM NOT_NAMED 1921-03-13 21:00:00 NR -17.0042 60.4074 main 448 326 _____P____P___ -1 -17.0042 60.4074 99 -18.6814 57.1657 7 19 242
1921070S14067 1921 15 SI MM NOT_NAMED 1921-03-14 00:00:00 NR -17.6161 59.2405 main 321 235 _____P____P___ -1 -17.2826 59.8388 99 -18.8975 56.8054 7 22 241
1921070S14067 1921 15 SI MM NOT_NAMED 1921-03-14 03:00:00 NR -18.0746 58.3671 main 235 190 _____P____P___ -1 -17.5494 59.2992 99 -19.1040 56.4821 7 17 241
1921070S14067 1921 15 SI MM NOT_NAMED 1921-03-14 06:00:00 NR -18.4429 57.6857 reunion main 190 158 _____O____O___ -1 -17.8000 58.8000 99 9.90000 -19.3000 56.2000 7 14 240
1921070S14067 1921 15 SI MM NOT_NAMED 1921-03-14 09:00:00 NR -18.7586 57.1428 main 151 144 _____P____P___ -1 -18.0261 58.3490 99 -19.5018 55.9461 7 10 238
1921070S14067 1921 15 SI MM NOT_NAMED 1921-03-14 12:00:00 NR -18.9594 56.8252 main 143 139 _____P____P___ -1 -18.2390 57.9330 99 -19.6910 55.7275 7 7 236
1921070S14067 1921 15 SI MM NOT_NAMED 1921-03-14 15:00:00 NR -19.1467 56.5452 main 153 145 _____P____P___ -1 -18.4398 57.5507 99 -19.8597 55.5451 7 6 234
1921070S14067 1921 15 SI MM NOT_NAMED 1921-03-14 18:00:00 NR -19.3148 56.3004 main 154 154 _____P____O___ -1 -18.6296 57.2008 99 -20.0000 55.4000 7 5 236
1921070S14067 1921 15 SI MM NOT_NAMED 1921-03-14 21:00:00 NR -19.4464 56.0814 main 166 157 _____P____P___ -1 -18.8095 56.8820 99 -20.0833 55.2807 7 5 237
1921070S14067 1921 15 SI MM NOT_NAMED 1921-03-15 00:00:00 NR -19.5615 55.8952 main 157 145 _____P____P___ -1 -18.9806 56.5932 99 -20.1424 55.1972 7 4 235
1921070S14067 1921 15 SI MM NOT_NAMED 1921-03-15 03:00:00 NR -19.6745 55.7365 main 145 134 _____P____P___ -1 -19.1437 56.3329 99 -20.2052 55.1401 7 4 229
1921070S14067 1921 15 SI MM NOT_NAMED 1921-03-15 06:00:00 NR -19.8000 55.6000 reunion main 134 123 _____O____O___ -1 -19.3000 56.1000 99 9.90000 -20.3000 55.1000 7 4 224
1921070S14067 1921 15 SI MM NOT_NAMED 1921-03-15 09:00:00 NR -19.9529 55.4516 main 111 100 _____P____P___ -1 -19.4458 55.8547 99 -20.4600 55.0485 7 4 219
1921070S14067 1921 15 SI MM NOT_NAMED 1921-03-15 12:00:00 NR -20.1186 55.3255 main 100 78 _____P____P___ -1 -19.5823 55.6384 99 -20.6550 55.0126 7 4 213
1921070S14067 1921 15 SI MM NOT_NAMED 1921-03-15 15:00:00 NR -20.2927 55.2227 main 78 56 _____P____P___ -1 -19.7129 55.4501 99 -20.8725 54.9954 7 4 205
1921070S14067 1921 15 SI MM NOT_NAMED 1921-03-15 18:00:00 NR -20.4706 55.1445 main 59 49 _____P____O___ -1 -19.8412 55.2890 99 -21.1000 55.0000 7 4 201
1921070S14067 1921 15 SI MM NOT_NAMED 1921-03-15 21:00:00 NR -20.6462 55.0813 main 49 30 _____P____P___ -1 -19.9706 55.1543 99 -21.3218 55.0082 7 4 195
1921070S14067 1921 15 SI MM NOT_NAMED 1921-03-16 00:00:00 NR -20.8272 55.0427 main 38 23 _____P____P___ -1 -20.1045 55.0452 99 -21.5499 55.0402 7 4 187
1921070S14067 1921 15 SI MM NOT_NAMED 1921-03-16 03:00:00 NR -21.0123 55.0314 main 23 20 _____P____P___ -1 -20.2465 54.9607 99 -21.7780 55.1020 7 4 177
1921070S14067 1921 15 SI MM NOT_NAMED 1921-03-16 06:00:00 NR -21.2000 55.0500 reunion main 15 15 _____O____O___ -1 -20.4000 54.9000 99 9.90000 -22.0000 55.2000 7 4 174
1921070S14067 1921 15 SI MM NOT_NAMED 1921-03-16 09:00:00 NR -21.3978 55.0753 main 23 23 _____P____P___ -1 -20.5802 54.8197 99 -22.2153 55.3309 7 4 168
1921070S14067 1921 15 SI MM NOT_NAMED 1921-03-16 12:00:00 NR -21.5970 55.1302 main 39 39 _____P____P___ -1 -20.7714 54.7629 99 -22.4225 55.4974 7 4 162
1921070S14067 1921 15 SI MM NOT_NAMED 1921-03-16 15:00:00 NR -21.7947 55.2107 main 56 56 _____P____P___ -1 -20.9710 54.7311 99 -22.6184 55.6903 7 4 157
1921070S14067 1921 15 SI MM NOT_NAMED 1921-03-16 18:00:00 NR -21.9882 55.3129 main 73 73 _____P____O___ -1 -21.1763 54.7259 99 -22.8000 55.9000 7 4 153
1921070S14067 1921 15 SI MM NOT_NAMED 1921-03-16 21:00:00 NR -22.1744 55.4257 main 91 90 _____P____P___ -1 -21.3846 54.7486 99 -22.9643 56.1027 7 4 148
1921070S14067 1921 15 SI MM NOT_NAMED 1921-03-17 00:00:00 NR -22.3540 55.5606 main 111 111 _____P____P___ -1 -21.5931 54.8008 99 -23.1148 56.3203 7 4 143
1921070S14067 1921 15 SI MM NOT_NAMED 1921-03-17 03:00:00 NR -22.5286 55.7184 main 123 123 _____P____P___ -1 -21.7992 54.8841 99 -23.2580 56.5528 7 5 138
1921070S14067 1921 15 SI MM NOT_NAMED 1921-03-17 06:00:00 NR -22.7000 55.9000 reunion main 148 148 _____O____O___ -1 -22.0000 55.0000 99 9.90000 -23.4000 56.8000 7 5 134
1921070S14067 1921 15 SI MM NOT_NAMED 1921-03-17 09:00:00 NR -22.8691 56.1003 main 175 175 _____P____P___ -1 -22.1883 55.1398 99 -23.5500 57.0607 7 5 131
1921070S14067 1921 15 SI MM NOT_NAMED 1921-03-17 12:00:00 NR -23.0364 56.3250 main 192 192 _____P____P___ -1 -22.3729 55.3149 99 -23.7000 57.3352 7 5 128
1921070S14067 1921 15 SI MM NOT_NAMED 1921-03-17 15:00:00 NR -23.2018 56.5684 main 225 225 _____P____P___ -1 -22.5536 55.5199 99 -23.8499 57.6170 7 6 126
1921070S14067 1921 15 SI MM NOT_NAMED 1921-03-17 18:00:00 NR -23.3652 56.8246 main 255 255 _____P____O___ -1 -22.7305 55.7492 99 -24.0000 57.9000 7 6 125
1921070S14067 1921 15 SI MM NOT_NAMED 1921-03-17 21:00:00 NR -23.5224 57.0683 main 279 279 _____P____P___ -1 -22.9035 55.9975 99 -24.1412 58.1392 7 6 124
1921070S14067 1921 15 SI MM NOT_NAMED 1921-03-18 00:00:00 NR -23.6783 57.3213 main 309 309 _____P____P___ -1 -23.0728 56.2590 99 -24.2839 58.3836 7 6 123
1921070S14067 1921 15 SI MM NOT_NAMED 1921-03-18 03:00:00 NR -23.8365 57.5948 main 335 335 _____P____P___ -1 -23.2382 56.5284 99 -24.4347 58.6612 7 6 121
1921070S14067 1921 15 SI MM NOT_NAMED 1921-03-18 06:00:00 NR -24.0000 57.9000 reunion main 370 370 _____O____O___ -1 -23.4000 56.8000 99 9.90000 -24.6000 59.0000 7 7 120
1921070S14067 1921 15 SI MM NOT_NAMED 1921-03-18 09:00:00 NR -24.1650 58.2158 main 406 406 _____P____P___ -1 -23.5483 57.0083 99 -24.7816 59.4233 7 7 119
1921070S14067 1921 15 SI MM NOT_NAMED 1921-03-18 12:00:00 NR -24.3343 58.5640 main 434 434 _____P____P___ -1 -23.6912 57.2176 99 -24.9775 59.9103 7 7 118
1921070S14067 1921 15 SI MM NOT_NAMED 1921-03-18 15:00:00 NR -24.5081 58.9387 main 463 463 _____P____P___ -1 -23.8316 57.4351 99 -25.1846 60.4422 7 8 117
1921070S14067 1921 15 SI MM NOT_NAMED 1921-03-18 18:00:00 NR -24.6863 59.3340 main 497 497 _____P____O___ -1 -23.9727 57.6681 99 -25.4000 61.0000 7 8 116
1921070S14067 1921 15 SI MM NOT_NAMED 1921-03-18 21:00:00 NR -24.8693 59.7456 main 532 532 _____P____P___ -1 -24.1172 57.9237 99 -25.6214 61.5675 7 6 117
1921070S14067 1921 15 SI MM NOT_NAMED 1921-03-19 00:00:00 NR -24.9445 59.8942 main 541 541 _____P____P___ -1 -24.2681 58.2092 99 -25.8465 62.1408 7 2 124
1921070S14067 1921 15 SI MM NOT_NAMED 1921-03-19 03:00:00 NR -24.9765 59.9277 main 551 536 _____P____P___ -1 -24.4281 58.5322 99 -26.0734 62.7187 7 1 272
1921070S14067 1921 15 SI MM NOT_NAMED 1921-03-19 06:00:00 NR -24.9400 59.7800 reunion main 536 511 _____O____O___ -1 -24.6000 58.9000 99 9.90000 -26.3000 63.3000 7 5 288
1921070S14067 1921 15 SI MM NOT_NAMED 1921-03-19 09:00:00 NR -24.8198 59.3927 main 511 511 _____P________ -1 -24.8198 59.3927 99 7 2 129
1921070S14067 1921 15 SI MM NOT_NAMED 1921-03-19 12:00:00 NR -25.0532 59.9398 main 561 561 _____P________ -1 -25.0532 59.9398 99 7 11 115
1921070S14067 1921 15 SI MM NOT_NAMED 1921-03-19 15:00:00 NR -25.2920 60.5208 main 608 608 _____P________ -1 -25.2920 60.5208 99 7 12 114
1921070S14067 1921 15 SI MM NOT_NAMED 1921-03-19 18:00:00 NR -25.5282 61.1151 main 658 658 _____P________ -1 -25.5282 61.1151 99 12 113
1921070S14067 1921 15 SI MM NOT_NAMED 1921-03-19 21:00:00 NR -25.7542 61.7017 main 719 719 _____P________ -1 -25.7542 61.7017 99 11 113
1921070S14067 1921 15 SI MM NOT_NAMED 1921-03-20 00:00:00 NR -25.9628 62.2591 main 773 773 _____P________ -1 -25.9628 62.2591 99 10 112
1921070S14067 1921 15 SI MM NOT_NAMED 1921-03-20 03:00:00 NR -26.1470 62.7658 main 813 813 _____P________ -1 -26.1470 62.7658 99 9 112
1921070S14067 1921 15 SI MM NOT_NAMED 1921-03-20 06:00:00 NR -26.3000 63.2000 reunion main 857 857 _____O________ -1 -26.3000 63.2000 99 9.90000 7 111
1921070S14067 1921 15 SI MM NOT_NAMED 1921-03-20 09:00:00 NR -26.4174 63.5454 main 885 885 _____P________ -1 -26.4174 63.5454 99 6 110
1921070S14067 1921 15 SI MM NOT_NAMED 1921-03-20 12:00:00 NR -26.5024 63.8080 main 914 914 _____P________ -1 -26.5024 63.8080 99 4 109
1921070S14067 1921 15 SI MM NOT_NAMED 1921-03-20 15:00:00 NR -26.5600 63.9993 main 936 936 _____P________ -1 -26.5600 63.9993 99 3 108
1921070S14067 1921 15 SI MM NOT_NAMED 1921-03-20 18:00:00 NR -26.5950 64.1310 main 943 943 _____P________ -1 -26.5950 64.1310 99 2 105
1921070S14067 1921 15 SI MM NOT_NAMED 1921-03-20 21:00:00 NR -26.6119 64.2151 main 950 950 _____P________ -1 -26.6119 64.2151 99 1 100
1921070S14067 1921 15 SI MM NOT_NAMED 1921-03-21 00:00:00 NR -26.6154 64.2633 main 957 957 _____P________ -1 -26.6154 64.2633 99 1 88
1921070S14067 1921 15 SI MM NOT_NAMED 1921-03-21 03:00:00 NR -26.6099 64.2876 main 957 957 _____P________ -1 -26.6099 64.2876 99 0 67
1921070S14067 1921 15 SI MM NOT_NAMED 1921-03-21 06:00:00 NR -26.6000 64.3000 reunion main 957 _____O________ -1 -26.6000 64.3000 99 9.90000 0 0

About IBTrACS Database

This database is a web-friendly format of International Best Track Archive for Climate Stewardship (IBTrACS), a global best track data archive curated by NOAA dating back to 1842.

Updated: 2021-11-26